sensor_id;sensor_type;location;lat;lon;timestamp;P1;durP1;ratioP1;P2;durP2;ratioP2
41865;SDS011;27539;43.222;27.558;2023-04-08T00:00:31;3.07;;;2.40;;
41865;SDS011;27539;43.222;27.558;2023-04-08T00:02:57;4.90;;;2.43;;
41865;SDS011;27539;43.222;27.558;2023-04-08T00:05:22;6.07;;;3.17;;
41865;SDS011;27539;43.222;27.558;2023-04-08T00:07:48;4.63;;;2.17;;
41865;SDS011;27539;43.222;27.558;2023-04-08T00:10:14;6.20;;;3.17;;
41865;SDS011;27539;43.222;27.558;2023-04-08T00:12:39;6.57;;;3.20;;
41865;SDS011;27539;43.222;27.558;2023-04-08T00:15:05;3.50;;;3.17;;
41865;SDS011;27539;43.222;27.558;2023-04-08T00:17:31;8.07;;;3.22;;
41865;SDS011;27539;43.222;27.558;2023-04-08T00:19:57;4.82;;;2.63;;
41865;SDS011;27539;43.222;27.558;2023-04-08T00:22:22;7.87;;;2.07;;
41865;SDS011;27539;43.222;27.558;2023-04-08T00:24:48;3.97;;;2.60;;
41865;SDS011;27539;43.222;27.558;2023-04-08T00:27:13;6.97;;;2.77;;
41865;SDS011;27539;43.222;27.558;2023-04-08T00:29:39;5.20;;;3.80;;
41865;SDS011;27539;43.222;27.558;2023-04-08T00:32:05;1.23;;;1.23;;
41865;SDS011;27539;43.222;27.558;2023-04-08T00:34:31;2.70;;;2.17;;
41865;SDS011;27539;43.222;27.558;2023-04-08T00:36:56;1.27;;;1.17;;
41865;SDS011;27539;43.222;27.558;2023-04-08T00:39:22;2.43;;;2.20;;
41865;SDS011;27539;43.222;27.558;2023-04-08T00:41:47;4.30;;;2.20;;
41865;SDS011;27539;43.222;27.558;2023-04-08T00:44:13;2.40;;;2.20;;
41865;SDS011;27539;43.222;27.558;2023-04-08T00:46:38;2.47;;;2.20;;
41865;SDS011;27539;43.222;27.558;2023-04-08T00:49:04;8.70;;;2.57;;
41865;SDS011;27539;43.222;27.558;2023-04-08T00:51:31;2.67;;;1.95;;
41865;SDS011;27539;43.222;27.558;2023-04-08T00:53:57;4.65;;;3.50;;
41865;SDS011;27539;43.222;27.558;2023-04-08T00:56:24;3.65;;;2.30;;
41865;SDS011;27539;43.222;27.558;2023-04-08T00:58:51;5.25;;;3.45;;
41865;SDS011;27539;43.222;27.558;2023-04-08T01:06:58;2.03;;;1.55;;
41865;SDS011;27539;43.222;27.558;2023-04-08T01:09:29;2.80;;;1.80;;
41865;SDS011;27539;43.222;27.558;2023-04-08T01:11:57;5.70;;;2.53;;
41865;SDS011;27539;43.222;27.558;2023-04-08T01:14:28;2.90;;;1.85;;
41865;SDS011;27539;43.222;27.558;2023-04-08T01:16:55;2.47;;;2.00;;
41865;SDS011;27539;43.222;27.558;2023-04-08T01:19:26;9.00;;;3.17;;
41865;SDS011;27539;43.222;27.558;2023-04-08T01:22:02;3.25;;;2.95;;
41865;SDS011;27539;43.222;27.558;2023-04-08T01:24:50;3.03;;;2.80;;
41865;SDS011;27539;43.222;27.558;2023-04-08T01:27:23;2.63;;;2.42;;
41865;SDS011;27539;43.222;27.558;2023-04-08T01:29:51;2.58;;;2.05;;
41865;SDS011;27539;43.222;27.558;2023-04-08T01:32:17;6.95;;;2.30;;
41865;SDS011;27539;43.222;27.558;2023-04-08T01:34:44;8.02;;;2.78;;
41865;SDS011;27539;43.222;27.558;2023-04-08T01:37:10;5.77;;;3.33;;
41865;SDS011;27539;43.222;27.558;2023-04-08T01:42:05;2.75;;;1.83;;
41865;SDS011;27539;43.222;27.558;2023-04-08T01:44:30;9.82;;;4.57;;
41865;SDS011;27539;43.222;27.558;2023-04-08T01:46:57;6.45;;;2.88;;
41865;SDS011;27539;43.222;27.558;2023-04-08T01:49:23;3.63;;;3.28;;
41865;SDS011;27539;43.222;27.558;2023-04-08T01:51:50;5.30;;;2.38;;
41865;SDS011;27539;43.222;27.558;2023-04-08T01:54:17;2.50;;;2.22;;
41865;SDS011;27539;43.222;27.558;2023-04-08T01:56:43;14.13;;;3.40;;
41865;SDS011;27539;43.222;27.558;2023-04-08T01:59:11;7.43;;;3.30;;
41865;SDS011;27539;43.222;27.558;2023-04-08T02:01:40;5.72;;;2.75;;
41865;SDS011;27539;43.222;27.558;2023-04-08T02:04:07;3.78;;;3.47;;
41865;SDS011;27539;43.222;27.558;2023-04-08T02:06:33;4.65;;;2.10;;
41865;SDS011;27539;43.222;27.558;2023-04-08T02:08:59;5.95;;;3.67;;
41865;SDS011;27539;43.222;27.558;2023-04-08T02:11:25;5.22;;;2.83;;
41865;SDS011;27539;43.222;27.558;2023-04-08T02:13:52;6.65;;;3.60;;
41865;SDS011;27539;43.222;27.558;2023-04-08T02:16:33;4.82;;;3.35;;
41865;SDS011;27539;43.222;27.558;2023-04-08T02:22:01;5.63;;;4.15;;
41865;SDS011;27539;43.222;27.558;2023-04-08T02:24:32;3.47;;;2.47;;
41865;SDS011;27539;43.222;27.558;2023-04-08T02:27:00;3.70;;;2.95;;
41865;SDS011;27539;43.222;27.558;2023-04-08T02:29:29;4.55;;;3.05;;
41865;SDS011;27539;43.222;27.558;2023-04-08T02:31:56;4.28;;;3.58;;
41865;SDS011;27539;43.222;27.558;2023-04-08T02:34:23;8.02;;;2.25;;
41865;SDS011;27539;43.222;27.558;2023-04-08T02:36:49;15.20;;;4.28;;
41865;SDS011;27539;43.222;27.558;2023-04-08T02:39:16;4.65;;;3.38;;
41865;SDS011;27539;43.222;27.558;2023-04-08T02:41:41;2.50;;;2.30;;
41865;SDS011;27539;43.222;27.558;2023-04-08T02:44:07;3.33;;;2.40;;
41865;SDS011;27539;43.222;27.558;2023-04-08T02:46:33;6.57;;;3.13;;
41865;SDS011;27539;43.222;27.558;2023-04-08T02:48:59;13.63;;;4.68;;
41865;SDS011;27539;43.222;27.558;2023-04-08T02:51:25;6.40;;;2.30;;
41865;SDS011;27539;43.222;27.558;2023-04-08T02:53:51;10.27;;;4.20;;
41865;SDS011;27539;43.222;27.558;2023-04-08T02:56:17;3.13;;;2.80;;
41865;SDS011;27539;43.222;27.558;2023-04-08T02:58:43;3.47;;;3.17;;
41865;SDS011;27539;43.222;27.558;2023-04-08T03:01:08;2.90;;;2.53;;
41865;SDS011;27539;43.222;27.558;2023-04-08T03:03:33;6.77;;;3.87;;
41865;SDS011;27539;43.222;27.558;2023-04-08T03:05:59;6.70;;;2.87;;
41865;SDS011;27539;43.222;27.558;2023-04-08T03:08:25;6.67;;;3.17;;
41865;SDS011;27539;43.222;27.558;2023-04-08T03:10:51;5.40;;;3.17;;
41865;SDS011;27539;43.222;27.558;2023-04-08T03:13:16;22.53;;;5.47;;
41865;SDS011;27539;43.222;27.558;2023-04-08T03:15:42;15.15;;;4.32;;
41865;SDS011;27539;43.222;27.558;2023-04-08T03:18:07;8.90;;;3.60;;
41865;SDS011;27539;43.222;27.558;2023-04-08T03:20:33;6.88;;;3.03;;
41865;SDS011;27539;43.222;27.558;2023-04-08T03:22:59;7.53;;;3.43;;
41865;SDS011;27539;43.222;27.558;2023-04-08T03:25:24;3.30;;;2.67;;
41865;SDS011;27539;43.222;27.558;2023-04-08T03:27:50;3.57;;;3.23;;
41865;SDS011;27539;43.222;27.558;2023-04-08T03:30:15;2.63;;;2.00;;
41865;SDS011;27539;43.222;27.558;2023-04-08T03:32:41;3.20;;;2.90;;
41865;SDS011;27539;43.222;27.558;2023-04-08T03:35:07;2.50;;;1.93;;
41865;SDS011;27539;43.222;27.558;2023-04-08T03:37:33;5.38;;;2.78;;
41865;SDS011;27539;43.222;27.558;2023-04-08T03:39:58;3.53;;;1.60;;
41865;SDS011;27539;43.222;27.558;2023-04-08T03:42:24;7.93;;;3.13;;
41865;SDS011;27539;43.222;27.558;2023-04-08T03:44:49;4.93;;;4.07;;
41865;SDS011;27539;43.222;27.558;2023-04-08T03:47:15;4.30;;;3.60;;
41865;SDS011;27539;43.222;27.558;2023-04-08T03:49:40;8.13;;;3.80;;
41865;SDS011;27539;43.222;27.558;2023-04-08T03:52:06;3.33;;;2.33;;
41865;SDS011;27539;43.222;27.558;2023-04-08T03:54:31;2.33;;;2.23;;
41865;SDS011;27539;43.222;27.558;2023-04-08T03:56:57;5.37;;;3.83;;
41865;SDS011;27539;43.222;27.558;2023-04-08T03:59:22;4.07;;;3.00;;
41865;SDS011;27539;43.222;27.558;2023-04-08T04:01:48;6.82;;;4.07;;
41865;SDS011;27539;43.222;27.558;2023-04-08T04:04:15;3.53;;;2.72;;
41865;SDS011;27539;43.222;27.558;2023-04-08T04:06:40;4.67;;;3.63;;
41865;SDS011;27539;43.222;27.558;2023-04-08T04:09:06;6.70;;;4.80;;
41865;SDS011;27539;43.222;27.558;2023-04-08T04:11:33;4.40;;;3.58;;
41865;SDS011;27539;43.222;27.558;2023-04-08T04:13:59;2.78;;;2.30;;
41865;SDS011;27539;43.222;27.558;2023-04-08T04:16:25;4.67;;;3.20;;
41865;SDS011;27539;43.222;27.558;2023-04-08T04:18:51;9.73;;;5.53;;
41865;SDS011;27539;43.222;27.558;2023-04-08T04:21:17;4.50;;;2.95;;
41865;SDS011;27539;43.222;27.558;2023-04-08T04:23:42;11.32;;;6.32;;
41865;SDS011;27539;43.222;27.558;2023-04-08T04:26:08;7.88;;;4.93;;
41865;SDS011;27539;43.222;27.558;2023-04-08T04:28:34;7.40;;;4.70;;
41865;SDS011;27539;43.222;27.558;2023-04-08T04:31:00;9.02;;;5.88;;
41865;SDS011;27539;43.222;27.558;2023-04-08T04:33:25;5.70;;;3.97;;
41865;SDS011;27539;43.222;27.558;2023-04-08T04:35:51;10.83;;;4.60;;
41865;SDS011;27539;43.222;27.558;2023-04-08T04:38:16;7.20;;;4.90;;
41865;SDS011;27539;43.222;27.558;2023-04-08T04:40:42;7.80;;;5.72;;
41865;SDS011;27539;43.222;27.558;2023-04-08T04:43:08;12.18;;;4.57;;
41865;SDS011;27539;43.222;27.558;2023-04-08T04:45:33;12.97;;;5.90;;
41865;SDS011;27539;43.222;27.558;2023-04-08T04:47:59;13.27;;;5.75;;
41865;SDS011;27539;43.222;27.558;2023-04-08T04:50:24;17.15;;;4.05;;
41865;SDS011;27539;43.222;27.558;2023-04-08T04:52:51;3.92;;;2.90;;
41865;SDS011;27539;43.222;27.558;2023-04-08T04:55:16;10.52;;;5.25;;
41865;SDS011;27539;43.222;27.558;2023-04-08T04:57:42;8.23;;;3.40;;
41865;SDS011;27539;43.222;27.558;2023-04-08T05:00:08;7.45;;;4.05;;
41865;SDS011;27539;43.222;27.558;2023-04-08T05:02:34;9.75;;;3.72;;
41865;SDS011;27539;43.222;27.558;2023-04-08T05:05:00;7.27;;;4.27;;
41865;SDS011;27539;43.222;27.558;2023-04-08T05:07:25;6.50;;;4.13;;
41865;SDS011;27539;43.222;27.558;2023-04-08T05:09:51;15.60;;;4.87;;
41865;SDS011;27539;43.222;27.558;2023-04-08T05:12:17;7.57;;;4.53;;
41865;SDS011;27539;43.222;27.558;2023-04-08T05:17:10;12.63;;;6.35;;
41865;SDS011;27539;43.222;27.558;2023-04-08T05:19:35;5.63;;;4.50;;
41865;SDS011;27539;43.222;27.558;2023-04-08T05:22:01;5.97;;;4.97;;
41865;SDS011;27539;43.222;27.558;2023-04-08T05:24:26;6.40;;;4.57;;
41865;SDS011;27539;43.222;27.558;2023-04-08T05:26:52;11.45;;;5.03;;
41865;SDS011;27539;43.222;27.558;2023-04-08T05:29:17;5.60;;;3.73;;
41865;SDS011;27539;43.222;27.558;2023-04-08T05:31:43;5.97;;;3.25;;
41865;SDS011;27539;43.222;27.558;2023-04-08T05:34:09;6.10;;;4.10;;
41865;SDS011;27539;43.222;27.558;2023-04-08T05:36:35;7.00;;;4.30;;
41865;SDS011;27539;43.222;27.558;2023-04-08T05:39:01;5.55;;;4.80;;
41865;SDS011;27539;43.222;27.558;2023-04-08T05:41:26;5.40;;;3.90;;
41865;SDS011;27539;43.222;27.558;2023-04-08T05:43:52;6.72;;;4.18;;
41865;SDS011;27539;43.222;27.558;2023-04-08T05:46:17;11.75;;;4.03;;
41865;SDS011;27539;43.222;27.558;2023-04-08T05:48:43;14.68;;;6.53;;
41865;SDS011;27539;43.222;27.558;2023-04-08T05:51:14;13.40;;;6.78;;
41865;SDS011;27539;43.222;27.558;2023-04-08T05:53:41;6.00;;;4.75;;
41865;SDS011;27539;43.222;27.558;2023-04-08T05:56:08;12.10;;;5.35;;
41865;SDS011;27539;43.222;27.558;2023-04-08T05:58:34;10.57;;;6.45;;
41865;SDS011;27539;43.222;27.558;2023-04-08T06:00:59;7.78;;;4.88;;
41865;SDS011;27539;43.222;27.558;2023-04-08T06:03:25;5.70;;;4.50;;
41865;SDS011;27539;43.222;27.558;2023-04-08T06:05:50;8.75;;;5.55;;
41865;SDS011;27539;43.222;27.558;2023-04-08T06:08:16;7.82;;;5.80;;
41865;SDS011;27539;43.222;27.558;2023-04-08T06:10:50;7.20;;;5.47;;
41865;SDS011;27539;43.222;27.558;2023-04-08T06:13:16;11.93;;;5.60;;
41865;SDS011;27539;43.222;27.558;2023-04-08T06:15:42;10.63;;;4.88;;
41865;SDS011;27539;43.222;27.558;2023-04-08T06:18:08;12.77;;;6.47;;
41865;SDS011;27539;43.222;27.558;2023-04-08T06:20:34;8.00;;;5.72;;
41865;SDS011;27539;43.222;27.558;2023-04-08T06:23:00;5.10;;;3.83;;
41865;SDS011;27539;43.222;27.558;2023-04-08T06:25:25;5.70;;;3.97;;
41865;SDS011;27539;43.222;27.558;2023-04-08T06:27:51;10.40;;;5.03;;
41865;SDS011;27539;43.222;27.558;2023-04-08T06:30:17;5.00;;;4.00;;
41865;SDS011;27539;43.222;27.558;2023-04-08T06:32:42;7.03;;;4.82;;
41865;SDS011;27539;43.222;27.558;2023-04-08T06:35:08;13.45;;;5.47;;
41865;SDS011;27539;43.222;27.558;2023-04-08T06:37:33;8.40;;;5.43;;
41865;SDS011;27539;43.222;27.558;2023-04-08T06:40:02;16.40;;;10.85;;
41865;SDS011;27539;43.222;27.558;2023-04-08T06:42:31;17.15;;;9.20;;
41865;SDS011;27539;43.222;27.558;2023-04-08T06:44:57;13.05;;;10.43;;
41865;SDS011;27539;43.222;27.558;2023-04-08T06:47:22;11.55;;;6.20;;
41865;SDS011;27539;43.222;27.558;2023-04-08T06:49:48;4.88;;;4.45;;
41865;SDS011;27539;43.222;27.558;2023-04-08T06:52:13;4.90;;;3.78;;
41865;SDS011;27539;43.222;27.558;2023-04-08T06:54:39;12.70;;;4.65;;
41865;SDS011;27539;43.222;27.558;2023-04-08T06:57:05;5.18;;;4.18;;
41865;SDS011;27539;43.222;27.558;2023-04-08T06:59:31;13.55;;;3.97;;
41865;SDS011;27539;43.222;27.558;2023-04-08T07:01:56;7.25;;;4.28;;
41865;SDS011;27539;43.222;27.558;2023-04-08T07:04:22;10.35;;;3.67;;
41865;SDS011;27539;43.222;27.558;2023-04-08T07:06:47;8.13;;;4.28;;
41865;SDS011;27539;43.222;27.558;2023-04-08T07:09:13;4.97;;;3.67;;
41865;SDS011;27539;43.222;27.558;2023-04-08T07:11:38;4.60;;;3.17;;
41865;SDS011;27539;43.222;27.558;2023-04-08T07:14:03;3.03;;;2.70;;
41865;SDS011;27539;43.222;27.558;2023-04-08T07:16:29;2.53;;;2.33;;
41865;SDS011;27539;43.222;27.558;2023-04-08T07:18:54;8.02;;;3.65;;
41865;SDS011;27539;43.222;27.558;2023-04-08T07:21:20;6.93;;;4.03;;
41865;SDS011;27539;43.222;27.558;2023-04-08T07:23:46;5.65;;;3.67;;
41865;SDS011;27539;43.222;27.558;2023-04-08T07:26:11;4.10;;;3.60;;
41865;SDS011;27539;43.222;27.558;2023-04-08T07:28:37;6.00;;;4.35;;
41865;SDS011;27539;43.222;27.558;2023-04-08T07:31:15;12.43;;;4.93;;
41865;SDS011;27539;43.222;27.558;2023-04-08T07:33:42;5.63;;;4.30;;
41865;SDS011;27539;43.222;27.558;2023-04-08T07:36:08;9.33;;;4.27;;
41865;SDS011;27539;43.222;27.558;2023-04-08T07:38:34;16.42;;;3.92;;
41865;SDS011;27539;43.222;27.558;2023-04-08T07:41:00;5.32;;;3.72;;
41865;SDS011;27539;43.222;27.558;2023-04-08T07:43:26;9.57;;;3.30;;
41865;SDS011;27539;43.222;27.558;2023-04-08T07:45:51;6.43;;;2.58;;
41865;SDS011;27539;43.222;27.558;2023-04-08T07:48:17;10.18;;;3.67;;
41865;SDS011;27539;43.222;27.558;2023-04-08T07:50:42;3.38;;;2.33;;
41865;SDS011;27539;43.222;27.558;2023-04-08T07:55:35;3.35;;;2.95;;
41865;SDS011;27539;43.222;27.558;2023-04-08T07:58:00;2.47;;;2.20;;
41865;SDS011;27539;43.222;27.558;2023-04-08T08:00:26;3.63;;;2.97;;
41865;SDS011;27539;43.222;27.558;2023-04-08T08:02:54;2.65;;;2.45;;
41865;SDS011;27539;43.222;27.558;2023-04-08T08:05:20;4.78;;;2.85;;
41865;SDS011;27539;43.222;27.558;2023-04-08T08:07:45;5.82;;;3.75;;
41865;SDS011;27539;43.222;27.558;2023-04-08T08:10:11;5.00;;;3.10;;
41865;SDS011;27539;43.222;27.558;2023-04-08T08:12:36;5.82;;;3.35;;
41865;SDS011;27539;43.222;27.558;2023-04-08T08:15:02;5.00;;;3.00;;
41865;SDS011;27539;43.222;27.558;2023-04-08T08:17:28;3.23;;;2.40;;
41865;SDS011;27539;43.222;27.558;2023-04-08T08:19:55;2.90;;;2.20;;
41865;SDS011;27539;43.222;27.558;2023-04-08T08:22:21;5.28;;;2.80;;
41865;SDS011;27539;43.222;27.558;2023-04-08T08:24:46;1.83;;;1.70;;
41865;SDS011;27539;43.222;27.558;2023-04-08T08:27:12;5.18;;;2.53;;
41865;SDS011;27539;43.222;27.558;2023-04-08T08:29:37;1.98;;;1.85;;
41865;SDS011;27539;43.222;27.558;2023-04-08T08:32:03;3.50;;;2.20;;
41865;SDS011;27539;43.222;27.558;2023-04-08T08:34:29;2.88;;;1.67;;
41865;SDS011;27539;43.222;27.558;2023-04-08T08:36:54;4.03;;;2.17;;
41865;SDS011;27539;43.222;27.558;2023-04-08T08:39:21;3.10;;;1.37;;
41865;SDS011;27539;43.222;27.558;2023-04-08T08:41:46;6.00;;;1.48;;
41865;SDS011;27539;43.222;27.558;2023-04-08T08:44:12;3.80;;;2.03;;
41865;SDS011;27539;43.222;27.558;2023-04-08T08:46:44;2.45;;;1.77;;
41865;SDS011;27539;43.222;27.558;2023-04-08T08:49:12;1.52;;;1.42;;
41865;SDS011;27539;43.222;27.558;2023-04-08T08:51:38;1.05;;;1.05;;
41865;SDS011;27539;43.222;27.558;2023-04-08T08:54:04;2.15;;;0.90;;
41865;SDS011;27539;43.222;27.558;2023-04-08T08:56:31;0.80;;;0.80;;
41865;SDS011;27539;43.222;27.558;2023-04-08T08:58:57;3.63;;;1.73;;
41865;SDS011;27539;43.222;27.558;2023-04-08T09:01:33;4.22;;;1.45;;
41865;SDS011;27539;43.222;27.558;2023-04-08T09:07:03;1.45;;;1.00;;
41865;SDS011;27539;43.222;27.558;2023-04-08T09:09:49;3.67;;;1.60;;
41865;SDS011;27539;43.222;27.558;2023-04-08T09:12:15;4.07;;;1.92;;
41865;SDS011;27539;43.222;27.558;2023-04-08T09:14:41;1.55;;;1.45;;
41865;SDS011;27539;43.222;27.558;2023-04-08T09:17:07;2.03;;;1.35;;
41865;SDS011;27539;43.222;27.558;2023-04-08T09:19:32;2.65;;;2.20;;
41865;SDS011;27539;43.222;27.558;2023-04-08T09:22:05;2.50;;;2.30;;
41865;SDS011;27539;43.222;27.558;2023-04-08T09:24:32;2.15;;;1.77;;
41865;SDS011;27539;43.222;27.558;2023-04-08T09:26:58;1.60;;;1.50;;
41865;SDS011;27539;43.222;27.558;2023-04-08T09:29:24;0.80;;;0.80;;
41865;SDS011;27539;43.222;27.558;2023-04-08T09:31:57;4.13;;;2.28;;
41865;SDS011;27539;43.222;27.558;2023-04-08T09:34:23;4.82;;;1.48;;
41865;SDS011;27539;43.222;27.558;2023-04-08T09:36:51;3.10;;;1.48;;
41865;SDS011;27539;43.222;27.558;2023-04-08T09:39:17;0.75;;;0.70;;
41865;SDS011;27539;43.222;27.558;2023-04-08T09:41:43;2.92;;;1.98;;
41865;SDS011;27539;43.222;27.558;2023-04-08T09:44:13;5.78;;;3.53;;
41865;SDS011;27539;43.222;27.558;2023-04-08T09:57:09;4.95;;;1.60;;
41865;SDS011;27539;43.222;27.558;2023-04-08T09:59:37;2.42;;;2.03;;
41865;SDS011;27539;43.222;27.558;2023-04-08T10:02:09;4.53;;;2.60;;
41865;SDS011;27539;43.222;27.558;2023-04-08T10:04:37;6.63;;;2.45;;
41865;SDS011;27539;43.222;27.558;2023-04-08T10:07:08;1.85;;;1.50;;
41865;SDS011;27539;43.222;27.558;2023-04-08T10:09:34;6.25;;;2.15;;
41865;SDS011;27539;43.222;27.558;2023-04-08T10:12:02;2.53;;;1.80;;
41865;SDS011;27539;43.222;27.558;2023-04-08T10:14:28;5.60;;;2.88;;
41865;SDS011;27539;43.222;27.558;2023-04-08T10:17:27;2.65;;;1.38;;
41865;SDS011;27539;43.222;27.558;2023-04-08T10:19:52;2.38;;;1.85;;
41865;SDS011;27539;43.222;27.558;2023-04-08T10:23:01;3.10;;;2.30;;
41865;SDS011;27539;43.222;27.558;2023-04-08T10:27:39;6.88;;;2.90;;
41865;SDS011;27539;43.222;27.558;2023-04-08T10:32:52;2.13;;;1.92;;
41865;SDS011;27539;43.222;27.558;2023-04-08T10:35:28;5.25;;;2.92;;
41865;SDS011;27539;43.222;27.558;2023-04-08T10:37:59;4.10;;;2.38;;
41865;SDS011;27539;43.222;27.558;2023-04-08T10:40:26;2.25;;;1.55;;
41865;SDS011;27539;43.222;27.558;2023-04-08T10:42:55;1.65;;;1.45;;
41865;SDS011;27539;43.222;27.558;2023-04-08T10:45:21;10.13;;;2.67;;
41865;SDS011;27539;43.222;27.558;2023-04-08T10:47:47;2.28;;;1.95;;
41865;SDS011;27539;43.222;27.558;2023-04-08T10:50:13;3.70;;;2.30;;
41865;SDS011;27539;43.222;27.558;2023-04-08T10:52:49;4.38;;;2.17;;
41865;SDS011;27539;43.222;27.558;2023-04-08T10:55:25;2.65;;;1.88;;
41865;SDS011;27539;43.222;27.558;2023-04-08T10:57:51;3.20;;;1.80;;
41865;SDS011;27539;43.222;27.558;2023-04-08T11:00:18;5.55;;;2.00;;
41865;SDS011;27539;43.222;27.558;2023-04-08T11:03:08;6.05;;;2.00;;
41865;SDS011;27539;43.222;27.558;2023-04-08T11:05:35;6.50;;;3.08;;
41865;SDS011;27539;43.222;27.558;2023-04-08T11:08:02;2.03;;;1.65;;
41865;SDS011;27539;43.222;27.558;2023-04-08T11:10:28;3.95;;;2.33;;
41865;SDS011;27539;43.222;27.558;2023-04-08T11:12:55;2.05;;;1.13;;
41865;SDS011;27539;43.222;27.558;2023-04-08T11:15:21;2.20;;;1.85;;
41865;SDS011;27539;43.222;27.558;2023-04-08T11:17:49;3.58;;;2.25;;
41865;SDS011;27539;43.222;27.558;2023-04-08T11:20:15;7.03;;;3.10;;
41865;SDS011;27539;43.222;27.558;2023-04-08T11:22:41;5.50;;;2.97;;
41865;SDS011;27539;43.222;27.558;2023-04-08T11:25:09;3.90;;;2.42;;
41865;SDS011;27539;43.222;27.558;2023-04-08T11:27:35;5.95;;;3.28;;
41865;SDS011;27539;43.222;27.558;2023-04-08T11:30:01;2.00;;;1.25;;
41865;SDS011;27539;43.222;27.558;2023-04-08T11:32:28;3.70;;;1.98;;
41865;SDS011;27539;43.222;27.558;2023-04-08T11:34:54;2.55;;;2.20;;
41865;SDS011;27539;43.222;27.558;2023-04-08T11:37:19;3.15;;;2.40;;
41865;SDS011;27539;43.222;27.558;2023-04-08T11:39:46;3.28;;;2.30;;
41865;SDS011;27539;43.222;27.558;2023-04-08T11:44:56;2.33;;;2.10;;
41865;SDS011;27539;43.222;27.558;2023-04-08T11:47:29;1.65;;;1.55;;
41865;SDS011;27539;43.222;27.558;2023-04-08T11:49:56;1.85;;;1.58;;
41865;SDS011;27539;43.222;27.558;2023-04-08T11:52:22;1.38;;;1.27;;
41865;SDS011;27539;43.222;27.558;2023-04-08T11:54:47;3.17;;;1.42;;
41865;SDS011;27539;43.222;27.558;2023-04-08T11:57:13;3.35;;;1.42;;
41865;SDS011;27539;43.222;27.558;2023-04-08T11:59:39;1.63;;;1.15;;
41865;SDS011;27539;43.222;27.558;2023-04-08T12:02:05;2.47;;;1.17;;
41865;SDS011;27539;43.222;27.558;2023-04-08T12:04:31;2.93;;;1.77;;
41865;SDS011;27539;43.222;27.558;2023-04-08T12:06:58;11.48;;;2.78;;
41865;SDS011;27539;43.222;27.558;2023-04-08T12:09:23;3.05;;;1.55;;
41865;SDS011;27539;43.222;27.558;2023-04-08T12:11:48;8.82;;;2.17;;
41865;SDS011;27539;43.222;27.558;2023-04-08T12:14:14;4.75;;;2.83;;
41865;SDS011;27539;43.222;27.558;2023-04-08T12:16:40;2.42;;;2.08;;
41865;SDS011;27539;43.222;27.558;2023-04-08T12:19:05;1.50;;;1.35;;
41865;SDS011;27539;43.222;27.558;2023-04-08T12:21:31;2.60;;;2.05;;
41865;SDS011;27539;43.222;27.558;2023-04-08T12:23:58;1.70;;;1.52;;
41865;SDS011;27539;43.222;27.558;2023-04-08T12:26:23;3.90;;;2.50;;
41865;SDS011;27539;43.222;27.558;2023-04-08T12:28:49;2.72;;;2.15;;
41865;SDS011;27539;43.222;27.558;2023-04-08T12:31:14;3.28;;;1.55;;
41865;SDS011;27539;43.222;27.558;2023-04-08T12:33:40;4.32;;;2.40;;
41865;SDS011;27539;43.222;27.558;2023-04-08T12:36:05;10.43;;;2.50;;
41865;SDS011;27539;43.222;27.558;2023-04-08T12:38:31;2.78;;;1.88;;
41865;SDS011;27539;43.222;27.558;2023-04-08T12:40:57;5.68;;;3.67;;
41865;SDS011;27539;43.222;27.558;2023-04-08T12:43:23;3.15;;;1.80;;
41865;SDS011;27539;43.222;27.558;2023-04-08T12:45:48;4.20;;;2.25;;
41865;SDS011;27539;43.222;27.558;2023-04-08T12:48:14;8.68;;;2.25;;
41865;SDS011;27539;43.222;27.558;2023-04-08T12:50:40;3.38;;;2.05;;
41865;SDS011;27539;43.222;27.558;2023-04-08T12:53:05;2.35;;;0.95;;
41865;SDS011;27539;43.222;27.558;2023-04-08T12:55:31;5.00;;;1.85;;
41865;SDS011;27539;43.222;27.558;2023-04-08T12:57:56;2.00;;;1.60;;
41865;SDS011;27539;43.222;27.558;2023-04-08T13:00:22;5.70;;;2.15;;
41865;SDS011;27539;43.222;27.558;2023-04-08T13:02:47;2.35;;;1.63;;
41865;SDS011;27539;43.222;27.558;2023-04-08T13:05:13;1.65;;;1.55;;
41865;SDS011;27539;43.222;27.558;2023-04-08T13:07:38;2.70;;;1.95;;
41865;SDS011;27539;43.222;27.558;2023-04-08T13:10:04;8.80;;;1.88;;
41865;SDS011;27539;43.222;27.558;2023-04-08T13:12:31;1.70;;;1.30;;
41865;SDS011;27539;43.222;27.558;2023-04-08T13:14:56;1.77;;;1.65;;
41865;SDS011;27539;43.222;27.558;2023-04-08T13:17:22;1.92;;;1.50;;
41865;SDS011;27539;43.222;27.558;2023-04-08T13:19:48;3.10;;;1.65;;
41865;SDS011;27539;43.222;27.558;2023-04-08T13:22:14;4.07;;;1.38;;
41865;SDS011;27539;43.222;27.558;2023-04-08T13:24:40;1.33;;;1.23;;
41865;SDS011;27539;43.222;27.558;2023-04-08T13:27:06;1.40;;;1.30;;
41865;SDS011;27539;43.222;27.558;2023-04-08T13:29:32;2.80;;;1.25;;
41865;SDS011;27539;43.222;27.558;2023-04-08T13:31:58;1.88;;;1.77;;
41865;SDS011;27539;43.222;27.558;2023-04-08T13:34:23;3.92;;;2.20;;
41865;SDS011;27539;43.222;27.558;2023-04-08T13:36:49;5.40;;;2.42;;
41865;SDS011;27539;43.222;27.558;2023-04-08T13:39:14;1.80;;;1.63;;
41865;SDS011;27539;43.222;27.558;2023-04-08T13:41:39;3.85;;;2.38;;
41865;SDS011;27539;43.222;27.558;2023-04-08T13:44:05;5.13;;;1.77;;
41865;SDS011;27539;43.222;27.558;2023-04-08T13:46:31;5.65;;;2.38;;
41865;SDS011;27539;43.222;27.558;2023-04-08T13:48:56;5.57;;;2.42;;
41865;SDS011;27539;43.222;27.558;2023-04-08T13:51:22;1.95;;;1.77;;
41865;SDS011;27539;43.222;27.558;2023-04-08T13:53:47;1.52;;;1.42;;
41865;SDS011;27539;43.222;27.558;2023-04-08T13:56:13;6.22;;;1.92;;
41865;SDS011;27539;43.222;27.558;2023-04-08T13:58:38;5.35;;;1.48;;
41865;SDS011;27539;43.222;27.558;2023-04-08T14:01:04;1.65;;;1.00;;
41865;SDS011;27539;43.222;27.558;2023-04-08T14:03:29;1.35;;;1.25;;
41865;SDS011;27539;43.222;27.558;2023-04-08T14:05:55;1.77;;;1.63;;
41865;SDS011;27539;43.222;27.558;2023-04-08T14:08:21;2.13;;;1.47;;
41865;SDS011;27539;43.222;27.558;2023-04-08T14:10:54;1.50;;;1.40;;
41865;SDS011;27539;43.222;27.558;2023-04-08T14:13:20;2.20;;;1.70;;
41865;SDS011;27539;43.222;27.558;2023-04-08T14:15:46;1.58;;;1.48;;
41865;SDS011;27539;43.222;27.558;2023-04-08T14:18:12;3.67;;;1.35;;
41865;SDS011;27539;43.222;27.558;2023-04-08T14:20:38;0.90;;;0.88;;
41865;SDS011;27539;43.222;27.558;2023-04-08T14:23:03;2.97;;;1.27;;
41865;SDS011;27539;43.222;27.558;2023-04-08T14:25:29;2.47;;;1.35;;
41865;SDS011;27539;43.222;27.558;2023-04-08T14:27:54;1.75;;;1.17;;
41865;SDS011;27539;43.222;27.558;2023-04-08T14:30:21;2.88;;;1.88;;
41865;SDS011;27539;43.222;27.558;2023-04-08T14:32:46;2.03;;;1.27;;
41865;SDS011;27539;43.222;27.558;2023-04-08T14:35:12;1.77;;;1.00;;
41865;SDS011;27539;43.222;27.558;2023-04-08T14:37:37;1.55;;;1.45;;
41865;SDS011;27539;43.222;27.558;2023-04-08T14:40:03;1.85;;;1.08;;
41865;SDS011;27539;43.222;27.558;2023-04-08T14:42:29;0.50;;;0.50;;
41865;SDS011;27539;43.222;27.558;2023-04-08T14:44:54;4.03;;;2.25;;
41865;SDS011;27539;43.222;27.558;2023-04-08T14:47:21;4.15;;;1.73;;
41865;SDS011;27539;43.222;27.558;2023-04-08T14:49:47;0.50;;;0.50;;
41865;SDS011;27539;43.222;27.558;2023-04-08T14:52:13;1.38;;;0.82;;
41865;SDS011;27539;43.222;27.558;2023-04-08T14:54:38;1.20;;;0.82;;
41865;SDS011;27539;43.222;27.558;2023-04-08T14:57:03;0.80;;;0.77;;
41865;SDS011;27539;43.222;27.558;2023-04-08T14:59:29;7.97;;;2.63;;
41865;SDS011;27539;43.222;27.558;2023-04-08T15:01:54;2.08;;;0.73;;
41865;SDS011;27539;43.222;27.558;2023-04-08T15:04:20;1.08;;;0.57;;
41865;SDS011;27539;43.222;27.558;2023-04-08T15:06:45;1.65;;;0.82;;